Agua Linda, Arizona
Current Conditions -  °F | °C
As of 8:54 PM on Wednesday 22 Oct 2014 (Local Time) from KOLS Reporting Station
Clear Clear  
Wind Chill: 63°   Ceiling: Unl
Heat Index: 63°   Visibility: 10mi
Dew Point: 46°   Wind: 3mph
Humidity: 54%   Direction: 150°SSE
Pressure: 30.09"   Gusts: NA
Location:  31.6134°N, 110.959°W
Report Text: KOLS 230354Z AUTO 15003KT 10SM CLR 17/08 A3009 RMK AO2 SLPNO T01720078
Loading
Personal Weather Stations






























Interactive Weather Map
Tropical Storm Tracking
New forecast layout! Learn more

10-Day Weather Forecast

Advertisements
Track Severe Weather on mobile